KCCB/CCB METAR and TAF weather

Enter ICAO airport designator
Station Type Date Time Source
KCCB METAR 2021/02/27 03:35 UTC NOAA

KCCB 270335Z AUTO 25005KT 10SM CLR 15/M02 A2991 RMK AO2


Station Type Date Time Source
KCCB Decoded METAR 2021/02/27 03:35 UTC NOAA

Station name not available
Feb 26, 2021 - 10:35 PM EST / 2021.02.27 0335 UTC
Wind: from the WSW (250 degrees) at 6 MPH (5 KT):0
Visibility: 10 mile(s):0
Sky conditions: clear
Temperature: 59 F (15 C)
Dew Point: 28 F (-2 C)
Relative Humidity: 30%
Pressure (altimeter): 29.91 in. Hg (1012 hPa)
ob: KCCB 270335Z AUTO 25005KT 10SM CLR 15/M02 A2991 RMK AO2
cycle: 3

Station Type Date Time Source
KCCB TAF UTC NOAA

Error!

Example: see airport list